• LFSB

    METAR de LFSB (émis le 2022/01/20 22:00 UTC):
    LFSB 202200Z AUTO 25004KT 230V310 CAVOK M01/M02 Q1031 TEMPO 3000 BR

    TAF de LFSB (émis le 2022/01/20 18:44 UTC):
    LFSB 201700Z 2018/2118 30010KT 9999 FEW015 BKN040 TEMPO 2018/2021 -SHRA FEW020TCU PROB40 TEMPO 2018/2021 3000 -SHRASN PROB40 TEMPO 2022/2110 3000 BR PROB40 TEMPO 2103/2110 OVC003
  • LFSX

    METAR de LFSX (émis le 2022/01/20 22:00 UTC):
    LFSX 202200Z AUTO 00000KT 7000 ////// M01/M01 Q1031

    TAF de LFSX (émis le 2022/01/20 22:08 UTC):
    AMD LFSX 202200Z 2022/2121 33005KT CAVOK BECMG 2022/2024 2000 BR PROB30 TEMPO 2100/2106 0500 BCFG SCT003 BECMG 2109/2111 8000 NSW BECMG 2117/2119 VRB02KT 2000 BR TEMPO 2119/2121 0200 FZFG
  • LFSD

    METAR de LFSD (émis le 2022/01/20 22:00 UTC):
    LFSD 202200Z AUTO 36009KT 330V030 CAVOK 03/M01 Q1032

    TAF de LFSD (émis le 2015/06/01 00:11 UTC):
    LFSD 010600Z 0100/0124 CNL
  • LFGJ

    METAR de LFGJ (émis le 2022/01/20 22:00 UTC):
    LFGJ 202200Z AUTO 01010KT CAVOK 03/00 Q1031

    TAF COURT de LFGJ
    (émis le 2022/01/20 18:06 UTC):
    TAF TAF LFGJ 201800Z 2018/2024 CNL
  • LFJL

    METAR de LFJL (émis le 2022/01/20 22:00 UTC):
    LFJL 202200Z AUTO 30007KT CAVOK 01/M01 Q1032 NOSIG

    TAF de LFJL (émis le 2022/01/20 18:21 UTC):
    LFJL 201700Z 2018/2118 32008KT 9999 SCT040 BKN060 PROB40 TEMPO 2018/2021 4000 -SHRASN
  • LFST

    METAR de LFST (émis le 2022/01/20 22:00 UTC):
    LFST 202200Z AUTO 32010KT 9999 FEW052 BKN064 OVC078 02/M02 Q1031 NOSIG

    TAF de LFST (émis le 2022/01/20 18:22 UTC):
    LFST 201700Z 2018/2118 28008KT 9999 FEW020 BKN060 PROB40 TEMPO 2018/2021 4000 -SHRASN SCT020TCU